Time;durP1;ratioP1;P1;durP2;ratioP2;P2;SDS_P1;SDS_P2;PMS_P1;PMS_P2;Temp;Humidity;BMP_temperature;BMP_pressure;BME280_temperature;BME280_humidity;BME280_pressure;Samples;Min_cycle;Max_cycle;Signal;HPM_P1;HPM_P2
2022/02/06 05:15:00;;;;;;;1.52;1.40;;;6.90;99.90;;;;;;4932883;29;20257;-69
2022/02/06 05:18:09;;;;;;;1.08;1.08;;;6.90;99.90;;;;;;4933380;29;20242;-71
2022/02/06 05:23:38;;;;;;;1.08;1.08;;;6.90;99.90;;;;;;4953195;29;20208;-69
2022/02/06 05:26:28;;;;;;;0.80;0.80;;;7.00;99.90;;;;;;4947890;29;20222;-69
2022/02/06 05:29:01;;;;;;;0.85;0.85;;;7.00;99.90;;;;;;4950845;29;20208;-68
2022/02/06 05:31:39;;;;;;;0.90;0.90;;;7.00;99.90;;;;;;4932432;29;20212;-69
2022/02/06 05:34:07;;;;;;;0.60;0.60;;;7.00;99.90;;;;;;4933548;29;20585;-69
2022/02/06 05:36:34;;;;;;;0.88;0.65;;;7.10;99.90;;;;;;4933759;29;20651;-67
2022/02/06 05:39:01;;;;;;;0.50;0.50;;;7.10;99.90;;;;;;4929042;29;20206;-68
2022/02/06 05:41:27;;;;;;;0.82;0.82;;;7.10;99.90;;;;;;4914292;29;20215;-69
2022/02/06 05:43:54;;;;;;;0.60;0.60;;;7.10;99.90;;;;;;4922559;29;20214;-68
2022/02/06 05:46:21;;;;;;;0.55;0.55;;;7.10;99.90;;;;;;4933467;29;20585;-68
2022/02/06 05:48:47;;;;;;;0.60;0.50;;;7.20;99.90;;;;;;4933546;29;20272;-69
2022/02/06 05:51:16;;;;;;;0.70;0.70;;;7.10;99.90;;;;;;4919574;29;20305;-69
2022/02/06 05:53:44;;;;;;;0.77;0.77;;;7.10;99.90;;;;;;4922107;29;20202;-67
2022/02/06 05:56:10;;;;;;;1.00;1.00;;;7.10;99.90;;;;;;4933526;29;20213;-69
2022/02/06 05:58:38;;;;;;;1.08;0.95;;;7.10;99.90;;;;;;4933554;29;20213;-68
2022/02/06 06:01:05;;;;;;;0.60;0.60;;;7.10;99.90;;;;;;4923683;29;20230;-67
2022/02/06 06:03:31;;;;;;;0.68;0.52;;;7.10;99.90;;;;;;4914671;29;20206;-68
2022/02/06 06:05:58;;;;;;;0.50;0.50;;;7.10;99.90;;;;;;4927071;29;20297;-69
2022/02/06 06:08:26;;;;;;;0.73;0.73;;;7.10;99.90;;;;;;4933285;29;20205;-68
2022/02/06 06:10:53;;;;;;;0.88;0.88;;;7.10;99.90;;;;;;4919890;29;20770;-68
2022/02/06 06:13:20;;;;;;;0.73;0.73;;;7.10;99.90;;;;;;4934934;29;20300;-68
2022/02/06 06:15:47;;;;;;;0.90;0.90;;;7.10;99.90;;;;;;4935578;29;20220;-68
2022/02/06 06:18:14;;;;;;;1.05;0.80;;;7.00;99.90;;;;;;4918603;29;20211;-68
2022/02/06 06:20:44;;;;;;;0.82;0.82;;;7.10;99.90;;;;;;4929971;29;20241;-68
2022/02/06 06:23:10;;;;;;;0.90;0.90;;;7.10;99.90;;;;;;4925321;29;20221;-68
2022/02/06 06:25:40;;;;;;;0.90;0.90;;;7.10;99.90;;;;;;4936913;29;20217;-68
2022/02/06 06:28:08;;;;;;;0.73;0.70;;;7.10;99.90;;;;;;4918556;29;20238;-68
2022/02/06 06:30:36;;;;;;;0.80;0.80;;;7.10;99.90;;;;;;4935399;29;20281;-68
2022/02/06 06:33:03;;;;;;;0.77;0.77;;;7.10;99.90;;;;;;4928816;29;20210;-68
2022/02/06 06:35:30;;;;;;;1.05;1.05;;;7.10;99.90;;;;;;4936884;29;20280;-67
2022/02/06 06:37:58;;;;;;;0.70;0.70;;;7.10;99.90;;;;;;4934808;29;20214;-68
2022/02/06 06:40:25;;;;;;;0.85;0.85;;;7.10;99.90;;;;;;4935536;29;20230;-67
2022/02/06 06:42:54;;;;;;;0.98;0.98;;;7.10;99.90;;;;;;4917466;29;20211;-67
2022/02/06 06:45:22;;;;;;;0.68;0.63;;;7.10;99.90;;;;;;4932208;29;20671;-68
2022/02/06 06:47:52;;;;;;;0.52;0.52;;;7.10;99.90;;;;;;4936565;29;20229;-68
2022/02/06 06:50:19;;;;;;;0.60;0.60;;;7.10;99.90;;;;;;4927437;29;20313;-68
2022/02/06 06:52:47;;;;;;;1.02;1.02;;;7.20;99.90;;;;;;4919679;29;20242;-68
2022/02/06 06:55:16;;;;;;;2.60;1.00;;;7.20;99.90;;;;;;4928199;29;20210;-68
2022/02/06 06:57:51;;;;;;;0.95;0.95;;;7.20;99.90;;;;;;4931150;29;20210;-67
2022/02/06 07:00:33;;;;;;;0.80;0.80;;;7.20;99.90;;;;;;4928640;29;20226;-68
2022/02/06 07:03:01;;;;;;;0.85;0.85;;;7.20;99.90;;;;;;4936813;29;20292;-68
2022/02/06 07:05:27;;;;;;;0.73;0.73;;;7.30;99.90;;;;;;4918998;29;20214;-68
2022/02/06 07:07:56;;;;;;;0.70;0.70;;;7.30;99.90;;;;;;4923616;29;20253;-69
2022/02/06 07:10:22;;;;;;;1.15;1.15;;;7.30;99.90;;;;;;4935054;29;20233;-68
2022/02/06 07:12:50;;;;;;;1.98;1.10;;;7.30;99.90;;;;;;4935409;29;20693;-68
2022/02/06 07:15:17;;;;;;;0.80;0.80;;;7.30;99.90;;;;;;4935810;29;20495;-68
2022/02/06 07:17:46;;;;;;;1.20;1.20;;;7.30;99.90;;;;;;4930639;29;20250;-69
2022/02/06 07:20:14;;;;;;;0.85;0.85;;;7.30;99.90;;;;;;4917628;29;20273;-69
2022/02/06 07:22:40;;;;;;;0.93;0.93;;;7.30;99.90;;;;;;4916880;29;20238;-68
2022/02/06 07:25:08;;;;;;;1.38;1.38;;;7.30;99.90;;;;;;4930249;29;20242;-69
2022/02/06 07:27:38;;;;;;;0.82;0.82;;;7.30;99.90;;;;;;4931197;29;20226;-68
2022/02/06 07:30:07;;;;;;;1.25;1.15;;;7.30;99.90;;;;;;4928970;29;20229;-69
2022/02/06 07:32:36;;;;;;;2.38;1.20;;;7.30;99.90;;;;;;4936054;29;20206;-68
2022/02/06 07:35:07;;;;;;;1.00;1.00;;;7.30;99.90;;;;;;4935282;29;20222;-67
2022/02/06 07:37:33;;;;;;;1.42;1.42;;;7.40;99.90;;;;;;4935177;29;20212;-68
2022/02/06 07:40:00;;;;;;;1.13;1.13;;;7.40;99.90;;;;;;4935162;29;20305;-68
2022/02/06 07:42:27;;;;;;;1.38;1.33;;;7.40;99.90;;;;;;4932401;29;20202;-68
2022/02/06 07:44:53;;;;;;;1.27;1.27;;;7.40;99.90;;;;;;4935806;29;20277;-68
2022/02/06 07:47:22;;;;;;;1.20;1.20;;;7.40;99.90;;;;;;4934591;29;20698;-68
2022/02/06 07:49:50;;;;;;;0.95;0.95;;;7.40;99.90;;;;;;4934848;29;20233;-70
2022/02/06 07:52:20;;;;;;;1.25;1.25;;;7.40;99.90;;;;;;4935791;29;20214;-68
2022/02/06 07:54:46;;;;;;;1.30;1.30;;;7.50;99.90;;;;;;4930777;29;20217;-69
2022/02/06 07:57:13;;;;;;;1.50;1.50;;;7.50;99.90;;;;;;4945311;29;20225;-69
2022/02/06 07:59:40;;;;;;;1.60;1.50;;;7.50;99.90;;;;;;4934978;29;20229;-69
2022/02/06 08:02:07;;;;;;;1.33;1.33;;;7.50;99.90;;;;;;4926413;29;20671;-69
2022/02/06 08:04:34;;;;;;;0.80;0.80;;;7.50;99.90;;;;;;4928381;29;20226;-68
2022/02/06 08:07:02;;;;;;;2.65;1.02;;;7.50;99.90;;;;;;4935196;29;20733;-69
2022/02/06 08:09:48;;;;;;;1.95;0.90;;;7.50;99.90;;;;;;4934770;29;20226;-70
2022/02/06 08:12:15;;;;;;;0.90;0.90;;;7.50;99.90;;;;;;4924351;29;20361;-68
2022/02/06 08:14:55;;;;;;;0.70;0.70;;;7.50;99.90;;;;;;4934578;29;20206;-68
2022/02/06 08:17:24;;;;;;;0.65;0.65;;;7.60;99.90;;;;;;4927482;29;20575;-68
2022/02/06 08:19:51;;;;;;;1.60;0.88;;;7.50;99.90;;;;;;4934091;29;20305;-67
2022/02/06 08:22:18;;;;;;;0.90;0.90;;;7.50;99.90;;;;;;4928886;29;20313;-68
2022/02/06 08:24:47;;;;;;;0.85;0.80;;;7.50;99.90;;;;;;4930124;29;20210;-70
2022/02/06 08:27:14;;;;;;;1.00;1.00;;;7.50;99.90;;;;;;4926468;29;20223;-70
2022/02/06 08:29:44;;;;;;;0.82;0.82;;;7.60;99.90;;;;;;4923607;29;20219;-70
2022/02/06 08:32:11;;;;;;;1.23;1.15;;;7.60;99.90;;;;;;4934689;29;20293;-70
2022/02/06 08:34:38;;;;;;;1.20;1.20;;;7.60;99.90;;;;;;4931763;29;20254;-70
2022/02/06 08:37:05;;;;;;;1.65;1.65;;;7.60;99.90;;;;;;4915798;29;20207;-71
2022/02/06 08:39:32;;;;;;;1.52;1.52;;;7.60;99.90;;;;;;4927230;29;20234;-67
2022/02/06 08:42:01;;;;;;;1.70;1.65;;;7.60;99.90;;;;;;4927802;29;20208;-68
2022/02/06 08:44:28;;;;;;;0.90;0.90;;;7.60;99.90;;;;;;4929803;29;20224;-68
2022/02/06 08:46:55;;;;;;;3.50;1.10;;;7.60;99.90;;;;;;4916459;29;20304;-68
2022/02/06 08:49:23;;;;;;;1.20;1.20;;;7.70;99.90;;;;;;4929426;29;20206;-68
2022/02/06 08:51:50;;;;;;;0.93;0.93;;;7.70;99.90;;;;;;4932885;29;20209;-68
2022/02/06 08:54:17;;;;;;;0.95;0.95;;;7.70;99.90;;;;;;4928085;29;20198;-68
2022/02/06 08:56:44;;;;;;;1.08;1.08;;;7.60;99.90;;;;;;4934567;29;20554;-69
2022/02/06 08:59:12;;;;;;;0.88;0.88;;;7.70;99.90;;;;;;4933815;29;20277;-69
2022/02/06 09:01:39;;;;;;;1.00;0.55;;;7.70;99.90;;;;;;4917140;29;20239;-69
2022/02/06 09:04:06;;;;;;;0.70;0.70;;;7.60;99.90;;;;;;4932520;29;20273;-69
2022/02/06 09:06:36;;;;;;;1.13;0.50;;;7.50;99.90;;;;;;4933683;29;20264;-69
2022/02/06 09:09:03;;;;;;;0.93;0.93;;;7.40;99.90;;;;;;4918155;29;20623;-69
2022/02/06 09:11:31;;;;;;;0.70;0.70;;;7.40;99.90;;;;;;4915057;29;20225;-68
2022/02/06 09:13:58;;;;;;;1.40;1.40;;;7.30;99.90;;;;;;4916212;29;20217;-67
2022/02/06 09:16:27;;;;;;;2.30;2.10;;;7.30;99.90;;;;;;4934316;29;20587;-68
2022/02/06 09:18:54;;;;;;;2.40;2.13;;;7.30;99.90;;;;;;4923590;29;20309;-68
2022/02/06 09:21:23;;;;;;;6.88;6.15;;;7.40;99.90;;;;;;4920685;29;20266;-69
2022/02/06 09:23:50;;;;;;;2.88;1.40;;;7.50;99.90;;;;;;4925714;29;20790;-69
2022/02/06 09:26:16;;;;;;;3.47;3.28;;;7.50;99.90;;;;;;4926238;29;20209;-69
2022/02/06 09:28:44;;;;;;;1.45;1.35;;;7.50;99.90;;;;;;4934139;29;20596;-69
2022/02/06 09:31:11;;;;;;;13.43;10.65;;;7.30;99.90;;;;;;4933818;29;20321;-69
2022/02/06 09:36:05;;;;;;;9.68;6.78;;;7.20;99.90;;;;;;4923587;29;20213;-69
2022/02/06 09:38:32;;;;;;;2.65;2.55;;;7.10;99.90;;;;;;4933948;29;20209;-69
2022/02/06 09:40:58;;;;;;;3.30;3.00;;;7.00;99.90;;;;;;4932002;29;20661;-69
2022/02/06 09:43:25;;;;;;;1.85;1.85;;;7.00;99.90;;;;;;4927213;29;20667;-70
2022/02/06 09:45:53;;;;;;;7.15;6.45;;;7.00;99.90;;;;;;4914700;29;20211;-70
2022/02/06 09:48:20;;;;;;;3.75;3.55;;;7.10;99.90;;;;;;4920386;29;20284;-69
2022/02/06 09:50:48;;;;;;;2.95;2.85;;;7.10;99.90;;;;;;4918747;29;20297;-69
2022/02/06 09:53:15;;;;;;;1.80;1.80;;;7.30;99.90;;;;;;4924714;29;20270;-68
2022/02/06 09:55:43;;;;;;;1.65;1.65;;;7.50;99.90;;;;;;4915563;29;20281;-68
2022/02/06 09:58:19;;;;;;;2.17;1.55;;;7.60;99.90;;;;;;4932869;29;20206;-69
2022/02/06 10:00:46;;;;;;;2.28;1.02;;;7.70;99.90;;;;;;4933046;29;20233;-69
2022/02/06 10:03:14;;;;;;;1.60;1.50;;;7.70;99.90;;;;;;4933456;29;20209;-69
2022/02/06 10:05:43;;;;;;;1.20;1.20;;;7.70;99.90;;;;;;4930480;29;20303;-68
2022/02/06 10:08:16;;;;;;;2.30;2.22;;;7.80;99.90;;;;;;4914705;29;20234;-70
2022/02/06 10:10:56;;;;;;;2.47;2.42;;;7.80;99.90;;;;;;4916716;29;20234;-69
2022/02/06 10:13:22;;;;;;;2.63;1.67;;;7.90;99.90;;;;;;4914938;29;20214;-69
2022/02/06 10:15:49;;;;;;;1.25;1.25;;;7.90;99.90;;;;;;4917536;29;20605;-69
2022/02/06 10:18:16;;;;;;;0.70;0.70;;;7.90;99.90;;;;;;4935894;29;20697;-70
2022/02/06 10:20:46;;;;;;;1.20;1.20;;;7.90;99.90;;;;;;4934070;29;20336;-70
2022/02/06 10:23:25;;;;;;;1.80;1.70;;;7.90;99.90;;;;;;4929588;29;20284;-70
2022/02/06 10:25:54;;;;;;;1.75;1.75;;;7.90;99.90;;;;;;4923171;29;20213;-69
2022/02/06 10:28:35;;;;;;;1.67;1.67;;;8.00;99.90;;;;;;4918919;29;20238;-69
2022/02/06 10:31:04;;;;;;;1.15;1.05;;;8.00;99.90;;;;;;4923579;29;20249;-69
2022/02/06 10:33:45;;;;;;;1.10;1.10;;;8.00;99.90;;;;;;4932809;29;20210;-70
2022/02/06 10:36:12;;;;;;;0.60;0.60;;;8.00;99.90;;;;;;4920358;29;20590;-69
2022/02/06 10:38:40;;;;;;;0.60;0.60;;;8.00;99.90;;;;;;4925351;29;20349;-68
2022/02/06 10:41:09;;;;;;;4.90;0.80;;;8.10;99.90;;;;;;4921643;29;20230;-69
2022/02/06 10:43:37;;;;;;;0.57;0.57;;;8.10;99.90;;;;;;4933121;29;20212;-67
2022/02/06 10:46:12;;;;;;;0.80;0.80;;;8.10;99.90;;;;;;4933364;29;20209;-69
2022/02/06 10:48:46;;;;;;;0.40;0.40;;;8.10;99.90;;;;;;4933344;29;20252;-69
2022/02/06 10:51:35;;;;;;;0.47;0.47;;;8.10;99.90;;;;;;4931931;29;20380;-69
2022/02/06 10:54:05;;;;;;;0.50;0.50;;;8.10;99.90;;;;;;4921430;29;20705;-68
2022/02/06 10:56:32;;;;;;;0.65;0.65;;;8.10;99.90;;;;;;4928823;29;20202;-69
2022/02/06 10:59:00;;;;;;;0.50;0.50;;;8.10;99.90;;;;;;4933164;29;20202;-69
2022/02/06 11:01:30;;;;;;;0.80;0.80;;;8.10;99.90;;;;;;4927932;29;20230;-67
2022/02/06 11:04:13;;;;;;;0.52;0.52;;;8.10;99.90;;;;;;4934469;29;20629;-68
2022/02/06 11:06:44;;;;;;;1.00;1.00;;;8.10;99.90;;;;;;4936939;29;20558;-69
2022/02/06 11:09:26;;;;;;;0.77;0.77;;;8.20;99.90;;;;;;4935487;29;20316;-70
2022/02/06 11:11:53;;;;;;;1.30;1.30;;;8.20;99.90;;;;;;4931230;29;20213;-69
2022/02/06 11:14:24;;;;;;;2.70;1.30;;;8.20;99.90;;;;;;4936147;29;20215;-68
2022/02/06 11:16:50;;;;;;;1.30;1.30;;;8.10;99.90;;;;;;4955646;29;20655;-67
2022/02/06 11:19:18;;;;;;;4.40;4.00;;;8.20;99.90;;;;;;4939306;29;20218;-68
2022/02/06 11:21:45;;;;;;;1.20;1.20;;;8.20;99.90;;;;;;4924920;29;20213;-68
2022/02/06 11:24:20;;;;;;;1.55;1.38;;;8.20;99.90;;;;;;4926086;29;20206;-68
2022/02/06 11:26:48;;;;;;;0.77;0.77;;;8.20;99.90;;;;;;4931720;29;20271;-66
2022/02/06 11:29:15;;;;;;;1.10;1.10;;;8.20;99.90;;;;;;4932155;29;20221;-67
2022/02/06 11:31:42;;;;;;;1.30;1.25;;;8.20;99.90;;;;;;4923438;29;20671;-68
2022/02/06 11:34:12;;;;;;;1.00;1.00;;;8.10;99.90;;;;;;4919412;29;20202;-66
2022/02/06 11:45:33;;;;;;;1.27;1.27;;;8.10;99.90;;;;;;4907443;29;20276;-68
2022/02/06 11:48:04;;;;;;;0.75;0.75;;;8.10;99.90;;;;;;4925191;29;20317;-68
2022/02/06 11:50:32;;;;;;;2.45;2.35;;;8.10;99.90;;;;;;4921211;29;20234;-68
2022/02/06 11:53:01;;;;;;;2.10;2.00;;;8.10;99.90;;;;;;4933225;29;20698;-69
2022/02/06 11:55:36;;;;;;;1.77;1.77;;;8.10;99.90;;;;;;4934044;29;20297;-67
2022/02/06 11:58:26;;;;;;;1.73;1.73;;;8.10;99.90;;;;;;4934838;29;20248;-68
2022/02/06 12:01:22;;;;;;;2.28;2.08;;;8.00;99.90;;;;;;4933739;29;20234;-67
2022/02/06 12:03:58;;;;;;;1.40;1.40;;;8.00;99.90;;;;;;4928531;29;20639;-70
2022/02/06 12:06:29;;;;;;;3.13;3.03;;;8.00;99.90;;;;;;4928547;29;20214;-68
2022/02/06 12:09:18;;;;;;;1.30;1.30;;;8.00;99.90;;;;;;4926212;29;20218;-69
2022/02/06 12:12:13;;;;;;;2.20;2.17;;;8.00;99.90;;;;;;4922969;29;20203;-70
2022/02/06 12:14:46;;;;;;;1.35;1.35;;;8.00;99.90;;;;;;4920557;29;20968;-69
2022/02/06 12:17:21;;;;;;;2.35;2.25;;;8.00;99.90;;;;;;4925356;29;20252;-67
2022/02/06 12:20:07;;;;;;;1.80;1.80;;;8.00;99.90;;;;;;4932614;29;20345;-71
2022/02/06 12:22:42;;;;;;;2.20;2.20;;;8.00;99.90;;;;;;4930600;29;21645;-69
2022/02/06 12:25:31;;;;;;;3.67;3.45;;;8.00;99.90;;;;;;4929328;29;20220;-69
2022/02/06 12:28:31;;;;;;;2.90;2.80;;;8.00;99.90;;;;;;4926553;29;20613;-69
2022/02/06 12:31:26;;;;;;;8.30;5.95;;;8.00;99.90;;;;;;4911603;29;20666;-69
2022/02/06 12:34:09;;;;;;;4.28;3.97;;;8.00;99.90;;;;;;4928130;29;20214;-69
2022/02/06 12:39:23;;;;;;;2.40;2.40;;;7.90;99.90;;;;;;4929896;29;20742;-70
2022/02/06 12:41:50;;;;;;;2.97;2.88;;;7.90;99.90;;;;;;4915709;29;20218;-69
2022/02/06 12:44:18;;;;;;;1.95;1.95;;;7.90;99.90;;;;;;4929547;29;20225;-68
2022/02/06 12:46:48;;;;;;;1.40;1.40;;;7.90;99.90;;;;;;4922836;29;20568;-68
2022/02/06 12:49:17;;;;;;;2.13;2.03;;;7.90;99.90;;;;;;4937054;29;20231;-68
2022/02/06 12:51:44;;;;;;;1.90;1.90;;;7.90;99.90;;;;;;4936572;29;20206;-69
2022/02/06 12:54:12;;;;;;;2.00;1.90;;;7.90;99.90;;;;;;4930542;29;20218;-69
2022/02/06 12:56:40;;;;;;;1.73;1.73;;;7.80;99.90;;;;;;4923424;29;20203;-68
2022/02/06 12:59:08;;;;;;;1.50;1.50;;;7.80;99.90;;;;;;4931982;29;20194;-69
2022/02/06 13:01:38;;;;;;;1.60;1.60;;;7.80;99.90;;;;;;4934538;29;20744;-69
2022/02/06 13:04:08;;;;;;;1.88;1.88;;;7.80;99.90;;;;;;4932220;29;20210;-69
2022/02/06 13:06:36;;;;;;;1.75;1.75;;;7.80;99.90;;;;;;4931479;29;20882;-69
2022/02/06 13:09:08;;;;;;;2.40;2.30;;;7.80;99.90;;;;;;4926942;29;20277;-69
2022/02/06 13:11:46;;;;;;;2.50;2.50;;;7.80;99.90;;;;;;4935857;29;20229;-69
2022/02/06 13:14:20;;;;;;;2.10;2.00;;;7.80;99.90;;;;;;4944860;29;20218;-68
2022/02/06 13:16:54;;;;;;;2.97;2.78;;;7.70;99.90;;;;;;4935621;29;20216;-70
2022/02/06 13:19:34;;;;;;;4.53;4.15;;;7.70;99.90;;;;;;4932810;29;20222;-69
2022/02/06 13:22:22;;;;;;;3.10;3.00;;;7.70;99.90;;;;;;4931686;28;20205;-69
2022/02/06 13:25:10;;;;;;;2.15;2.05;;;7.70;99.90;;;;;;4927759;29;20198;-69
2022/02/06 13:28:01;;;;;;;0.57;0.57;;;7.70;99.90;;;;;;4929707;29;20214;-69
2022/02/06 13:30:45;;;;;;;1.05;0.65;;;7.30;99.90;;;;;;4924229;29;20225;-69
2022/02/06 13:33:31;;;;;;;1.25;1.20;;;6.80;99.90;;;;;;4930245;29;20210;-68
2022/02/06 13:36:12;;;;;;;0.57;0.57;;;6.50;99.90;;;;;;4932881;29;20469;-69
2022/02/06 13:38:39;;;;;;;0.50;0.50;;;6.20;99.90;;;;;;4930796;29;20202;-68
2022/02/06 13:41:12;;;;;;;0.55;0.55;;;5.90;99.90;;;;;;4932767;29;20229;-69
2022/02/06 13:43:41;;;;;;;0.50;0.40;;;5.60;99.90;;;;;;4930717;29;20210;-68
2022/02/06 13:46:13;;;;;;;0.47;0.47;;;5.40;99.90;;;;;;4932825;29;20212;-68
2022/02/06 13:48:40;;;;;;;1.33;1.33;;;5.20;99.90;;;;;;4933084;29;20405;-69
2022/02/06 13:51:10;;;;;;;0.50;0.50;;;5.20;99.90;;;;;;4926260;29;20229;-68
2022/02/06 13:53:36;;;;;;;1.05;1.05;;;5.20;99.90;;;;;;4923927;29;20202;-68
2022/02/06 13:56:07;;;;;;;1.67;1.60;;;5.10;99.90;;;;;;4914681;29;20215;-68
2022/02/06 13:58:35;;;;;;;1.25;1.25;;;5.00;99.90;;;;;;4924897;29;20191;-68
2022/02/06 14:01:03;;;;;;;2.45;2.35;;;4.90;99.90;;;;;;4933050;29;20229;-69
2022/02/06 14:03:44;;;;;;;1.10;1.00;;;4.90;99.90;;;;;;4923841;29;20674;-69
2022/02/06 14:06:14;;;;;;;1.50;1.50;;;4.90;99.90;;;;;;4920335;29;20283;-69
2022/02/06 14:08:56;;;;;;;1.40;1.40;;;5.00;99.90;;;;;;4922175;29;20222;-68
2022/02/06 14:11:28;;;;;;;1.20;1.20;;;5.00;99.90;;;;;;4921936;29;20239;-69
2022/02/06 14:14:19;;;;;;;1.83;1.73;;;5.00;99.90;;;;;;4925592;29;20198;-68
2022/02/06 14:16:48;;;;;;;1.13;1.13;;;5.00;99.90;;;;;;4933181;29;20210;-69
2022/02/06 14:19:15;;;;;;;0.70;0.70;;;5.00;99.90;;;;;;4931081;29;20280;-69
2022/02/06 14:21:47;;;;;;;1.00;1.00;;;5.00;99.90;;;;;;4928029;29;20304;-69
2022/02/06 14:24:14;;;;;;;1.23;1.23;;;4.90;99.90;;;;;;4930966;29;20210;-68
2022/02/06 14:27:00;;;;;;;0.30;0.30;;;4.90;99.90;;;;;;4924838;29;20218;-69
2022/02/06 14:29:26;;;;;;;1.10;1.00;;;4.90;99.90;;;;;;4929993;29;20321;-69
2022/02/06 14:31:53;;;;;;;1.77;1.67;;;4.90;99.90;;;;;;4921285;29;20225;-69
2022/02/06 14:34:22;;;;;;;2.80;2.60;;;4.90;99.90;;;;;;4925005;29;20218;-68
2022/02/06 14:37:12;;;;;;;1.27;1.27;;;4.90;99.90;;;;;;4935355;29;20593;-69
2022/02/06 14:40:05;;;;;;;0.95;0.95;;;4.90;99.90;;;;;;4929270;29;20725;-69
2022/02/06 14:42:34;;;;;;;0.77;0.77;;;4.80;99.90;;;;;;4927338;29;20289;-69
2022/02/06 14:45:09;;;;;;;13.10;7.40;;;4.80;99.90;;;;;;4943030;29;20660;-69
2022/02/06 14:47:36;;;;;;;3.05;2.72;;;4.80;99.90;;;;;;4936723;29;20214;-68
2022/02/06 14:50:11;;;;;;;0.70;0.70;;;4.80;99.90;;;;;;4939470;29;20241;-68
2022/02/06 14:52:39;;;;;;;1.70;1.60;;;4.90;99.90;;;;;;4938987;29;20216;-67
2022/02/06 14:55:06;;;;;;;2.08;1.98;;;4.90;99.90;;;;;;4931332;29;20203;-67
2022/02/06 14:57:33;;;;;;;3.85;3.47;;;4.90;99.90;;;;;;4928739;29;20206;-67
2022/02/06 15:00:00;;;;;;;3.10;2.90;;;4.90;99.90;;;;;;4938458;29;20300;-67
2022/02/06 15:02:27;;;;;;;2.33;2.22;;;4.90;99.90;;;;;;4927763;29;20274;-67
2022/02/06 15:04:54;;;;;;;2.63;2.42;;;4.90;99.90;;;;;;4929951;29;20343;-67
2022/02/06 15:07:20;;;;;;;2.58;2.40;;;5.00;99.90;;;;;;4925337;29;20217;-68
2022/02/06 15:09:48;;;;;;;1.25;1.25;;;5.00;99.90;;;;;;4924422;29;20243;-68
2022/02/06 15:12:15;;;;;;;1.42;1.42;;;4.90;99.90;;;;;;4936704;29;20580;-68
2022/02/06 15:14:42;;;;;;;2.63;2.40;;;5.00;99.90;;;;;;4932364;29;20218;-68
2022/02/06 15:17:10;;;;;;;1.92;1.85;;;5.00;99.90;;;;;;4936425;29;20214;-67
2022/02/06 15:19:37;;;;;;;2.83;2.63;;;5.00;99.90;;;;;;4922381;29;20644;-68
2022/02/06 15:22:05;;;;;;;3.17;2.97;;;5.10;99.90;;;;;;4924410;29;20220;-68
2022/02/06 15:24:33;;;;;;;1.30;1.30;;;5.10;99.90;;;;;;4925562;29;20229;-68
2022/02/06 15:27:01;;;;;;;1.65;1.65;;;5.10;99.90;;;;;;4916797;29;20206;-68
2022/02/06 15:29:30;;;;;;;1.60;1.50;;;5.10;99.90;;;;;;4923424;29;20637;-68
2022/02/06 15:31:57;;;;;;;1.00;1.00;;;5.10;99.90;;;;;;4935990;29;20206;-68
2022/02/06 15:34:26;;;;;;;6.40;6.18;;;5.10;99.90;;;;;;4934595;29;20233;-69
2022/02/06 15:36:53;;;;;;;1.70;1.60;;;5.10;99.90;;;;;;4923272;29;20202;-68
2022/02/06 15:39:24;;;;;;;0.82;0.82;;;5.10;99.90;;;;;;4921612;29;20213;-68
2022/02/06 15:41:53;;;;;;;1.00;1.00;;;5.10;99.90;;;;;;4935212;29;20210;-68
2022/02/06 15:44:22;;;;;;;0.90;0.90;;;5.10;99.90;;;;;;4929378;29;20230;-68
2022/02/06 15:46:49;;;;;;;1.33;1.30;;;5.10;99.90;;;;;;4934472;29;20294;-68
2022/02/06 15:49:16;;;;;;;1.30;1.20;;;5.20;99.90;;;;;;4931240;29;20230;-68
2022/02/06 15:51:42;;;;;;;2.15;2.10;;;5.10;99.90;;;;;;4925010;29;20248;-68
2022/02/06 15:54:09;;;;;;;1.40;1.40;;;5.10;99.90;;;;;;4928253;29;20301;-69
2022/02/06 15:56:36;;;;;;;1.20;1.20;;;5.10;99.90;;;;;;4929863;29;20738;-68
2022/02/06 15:59:03;;;;;;;0.98;0.93;;;5.10;99.90;;;;;;4921127;29;21259;-69
2022/02/06 16:01:31;;;;;;;1.05;1.05;;;5.20;99.90;;;;;;4923096;29;20230;-68
2022/02/06 16:03:57;;;;;;;1.98;1.88;;;5.20;99.90;;;;;;4926299;29;20213;-68
2022/02/06 16:06:24;;;;;;;3.35;3.13;;;5.20;99.90;;;;;;4929536;29;20233;-68
2022/02/06 16:08:51;;;;;;;2.90;2.60;;;5.20;99.90;;;;;;4925983;29;20222;-68
2022/02/06 16:11:18;;;;;;;2.95;2.78;;;5.30;99.90;;;;;;4922413;29;20229;-68
2022/02/06 16:13:44;;;;;;;1.50;1.50;;;5.20;99.90;;;;;;4922357;29;20583;-68
2022/02/06 16:16:11;;;;;;;1.95;1.95;;;5.20;99.90;;;;;;4921668;29;20218;-68
2022/02/06 16:18:39;;;;;;;2.65;2.10;;;5.20;99.90;;;;;;4932895;29;20573;-70
2022/02/06 16:21:06;;;;;;;1.95;1.85;;;5.20;99.90;;;;;;4924539;29;20252;-68
2022/02/06 16:23:32;;;;;;;2.25;2.15;;;5.20;99.90;;;;;;4923572;29;20209;-69
2022/02/06 16:25:59;;;;;;;3.28;3.08;;;5.20;99.90;;;;;;4931507;29;20209;-68
2022/02/06 16:28:29;;;;;;;2.65;2.45;;;5.20;99.90;;;;;;4930784;29;21101;-68
2022/02/06 16:30:56;;;;;;;2.85;2.70;;;5.20;99.90;;;;;;4928809;29;20288;-68
2022/02/06 16:33:23;;;;;;;3.22;3.05;;;5.20;99.90;;;;;;4924793;29;20221;-68
2022/02/06 16:35:51;;;;;;;3.35;3.15;;;5.20;99.90;;;;;;4927835;29;20222;-68
2022/02/06 16:38:17;;;;;;;2.72;2.53;;;5.10;99.90;;;;;;4927267;29;20289;-69
2022/02/06 16:40:44;;;;;;;3.10;3.00;;;5.10;99.90;;;;;;4917812;29;20225;-67
2022/02/06 16:43:11;;;;;;;3.72;3.00;;;5.10;99.90;;;;;;4932190;29;20674;-68
2022/02/06 16:45:37;;;;;;;2.42;2.40;;;5.10;99.90;;;;;;4922963;29;20219;-67
2022/02/06 16:48:05;;;;;;;2.95;2.75;;;5.10;99.90;;;;;;4924188;29;20738;-67
2022/02/06 16:50:31;;;;;;;2.47;2.28;;;5.10;99.90;;;;;;4926027;29;20241;-68
2022/02/06 16:53:00;;;;;;;2.47;2.30;;;5.10;99.90;;;;;;4926469;29;20214;-67
2022/02/06 16:55:27;;;;;;;2.40;2.30;;;5.20;99.90;;;;;;4925801;29;20626;-68
2022/02/06 16:57:54;;;;;;;4.97;2.60;;;5.20;99.90;;;;;;4930854;29;20229;-68
2022/02/06 17:00:21;;;;;;;3.00;2.90;;;5.20;99.90;;;;;;4931094;29;20221;-68
2022/02/06 17:02:48;;;;;;;4.35;3.33;;;5.20;99.90;;;;;;4928436;29;20235;-68
2022/02/06 17:05:14;;;;;;;3.30;3.00;;;5.20;99.90;;;;;;4920975;29;20225;-67
2022/02/06 17:07:41;;;;;;;2.20;2.10;;;5.20;99.90;;;;;;4930784;29;20206;-68
2022/02/06 17:10:10;;;;;;;3.40;3.20;;;5.30;99.90;;;;;;4929772;29;20884;-68
2022/02/06 17:12:36;;;;;;;4.97;2.90;;;5.30;99.90;;;;;;4921099;29;20300;-68
2022/02/06 17:15:04;;;;;;;3.83;2.42;;;5.30;99.90;;;;;;4928212;29;20210;-67
2022/02/06 17:17:30;;;;;;;3.50;2.30;;;5.20;99.90;;;;;;4931163;29;20241;-68
2022/02/06 17:19:59;;;;;;;1.90;1.83;;;5.30;99.90;;;;;;4929599;29;20304;-68
2022/02/06 17:22:26;;;;;;;2.72;2.53;;;5.30;99.90;;;;;;4931027;29;20269;-68
2022/02/06 17:24:52;;;;;;;4.57;3.63;;;5.30;99.90;;;;;;4922513;29;20604;-68
2022/02/06 17:27:23;;;;;;;2.58;2.42;;;5.30;99.90;;;;;;4924989;29;20616;-67
2022/02/06 17:29:50;;;;;;;4.00;2.20;;;5.30;99.90;;;;;;4922668;29;20322;-68
2022/02/06 17:32:17;;;;;;;2.05;1.95;;;5.30;99.90;;;;;;4919086;29;20215;-68
2022/02/06 17:34:44;;;;;;;1.52;1.52;;;5.30;99.90;;;;;;4919726;29;20271;-69
2022/02/06 17:37:11;;;;;;;2.30;2.20;;;5.30;99.90;;;;;;4930322;29;20205;-68
2022/02/06 17:39:38;;;;;;;2.90;1.90;;;5.30;99.90;;;;;;4928009;29;20222;-68
2022/02/06 17:42:06;;;;;;;2.67;1.90;;;5.30;99.90;;;;;;4923605;29;20210;-68
2022/02/06 17:44:34;;;;;;;5.53;3.20;;;5.30;99.90;;;;;;4927030;29;20269;-68
2022/02/06 17:47:01;;;;;;;4.05;3.75;;;5.30;99.90;;;;;;4923271;29;20276;-69
2022/02/06 17:49:27;;;;;;;3.35;3.05;;;5.30;99.90;;;;;;4931036;29;20679;-71
2022/02/06 17:51:54;;;;;;;4.00;3.75;;;5.30;99.90;;;;;;4926388;29;20819;-68
2022/02/06 17:54:22;;;;;;;8.20;4.18;;;5.30;99.90;;;;;;4925161;29;20206;-68
2022/02/06 17:56:48;;;;;;;9.00;5.70;;;5.40;99.90;;;;;;4925476;29;20241;-68
2022/02/06 17:59:15;;;;;;;2.78;2.58;;;5.30;99.90;;;;;;4929580;29;20221;-68
2022/02/06 18:01:43;;;;;;;13.88;6.82;;;5.30;99.90;;;;;;4926814;29;20207;-68
2022/02/06 18:04:10;;;;;;;8.13;5.38;;;5.30;99.90;;;;;;4926852;29;20513;-68
2022/02/06 18:06:37;;;;;;;14.98;8.10;;;5.30;99.90;;;;;;4932154;29;20209;-68
2022/02/06 18:09:04;;;;;;;9.55;5.55;;;5.30;99.90;;;;;;4932701;29;20278;-69
2022/02/06 18:11:31;;;;;;;9.27;4.82;;;5.40;99.90;;;;;;4931900;29;20234;-68
2022/02/06 18:13:58;;;;;;;8.45;2.78;;;5.40;99.90;;;;;;4925387;29;20284;-69
2022/02/06 18:16:25;;;;;;;4.32;3.03;;;5.40;99.90;;;;;;4932686;29;20258;-68
2022/02/06 18:18:52;;;;;;;2.83;2.60;;;5.40;99.90;;;;;;4922670;29;20253;-70
2022/02/06 18:21:19;;;;;;;4.38;3.55;;;5.40;99.90;;;;;;4929480;29;20297;-69
2022/02/06 18:23:46;;;;;;;6.25;3.60;;;5.40;99.90;;;;;;4924463;29;20213;-69
2022/02/06 18:26:13;;;;;;;2.85;2.65;;;5.50;99.90;;;;;;4926738;29;20310;-70
2022/02/06 18:28:39;;;;;;;7.00;3.13;;;5.40;99.90;;;;;;4922986;29;20250;-69
2022/02/06 18:31:06;;;;;;;2.38;2.17;;;5.40;99.90;;;;;;4931080;29;20304;-69
2022/02/06 18:33:33;;;;;;;4.65;2.47;;;5.50;99.90;;;;;;4922643;29;20274;-68
2022/02/06 18:36:05;;;;;;;1.55;1.55;;;5.50;99.90;;;;;;4926386;29;20272;-69
2022/02/06 18:38:31;;;;;;;2.58;2.47;;;5.40;99.90;;;;;;4925639;29;20202;-70
2022/02/06 18:41:06;;;;;;;2.10;1.98;;;5.40;99.90;;;;;;4928761;29;20251;-70
2022/02/06 18:43:32;;;;;;;2.33;2.30;;;5.40;99.90;;;;;;4924747;29;20213;-69